sensor_id;sensor_type;location;lat;lon;timestamp;P1;durP1;ratioP1;P2;durP2;ratioP2
70385;SDS011;63206;55.650;37.500;2022-12-18T00:00:44;16.23;;;5.90;;
70385;SDS011;63206;55.650;37.500;2022-12-18T00:03:15;15.77;;;6.15;;
70385;SDS011;63206;55.650;37.500;2022-12-18T00:05:48;15.60;;;5.65;;
70385;SDS011;63206;55.650;37.500;2022-12-18T00:08:19;14.63;;;5.95;;
70385;SDS011;63206;55.650;37.500;2022-12-18T00:10:51;17.52;;;5.90;;
70385;SDS011;63206;55.650;37.500;2022-12-18T00:13:19;15.25;;;5.55;;
70385;SDS011;63206;55.650;37.500;2022-12-18T00:15:51;21.65;;;5.55;;
70385;SDS011;63206;55.650;37.500;2022-12-18T00:18:23;15.05;;;6.13;;
70385;SDS011;63206;55.650;37.500;2022-12-18T00:20:51;14.43;;;6.10;;
70385;SDS011;63206;55.650;37.500;2022-12-18T00:23:20;14.90;;;5.95;;
70385;SDS011;63206;55.650;37.500;2022-12-18T00:25:48;15.90;;;6.50;;
70385;SDS011;63206;55.650;37.500;2022-12-18T00:31:01;16.08;;;5.57;;
70385;SDS011;63206;55.650;37.500;2022-12-18T00:33:29;15.50;;;5.57;;
70385;SDS011;63206;55.650;37.500;2022-12-18T00:36:17;14.32;;;5.60;;
70385;SDS011;63206;55.650;37.500;2022-12-18T00:38:49;14.73;;;5.93;;
70385;SDS011;63206;55.650;37.500;2022-12-18T00:41:21;14.85;;;6.18;;
70385;SDS011;63206;55.650;37.500;2022-12-18T00:44:12;15.88;;;5.68;;
70385;SDS011;63206;55.650;37.500;2022-12-18T00:46:45;17.35;;;5.82;;
70385;SDS011;63206;55.650;37.500;2022-12-18T00:49:19;16.52;;;6.07;;
70385;SDS011;63206;55.650;37.500;2022-12-18T00:51:48;17.13;;;5.90;;
70385;SDS011;63206;55.650;37.500;2022-12-18T00:54:20;14.35;;;5.43;;
70385;SDS011;63206;55.650;37.500;2022-12-18T00:56:49;14.95;;;5.78;;
70385;SDS011;63206;55.650;37.500;2022-12-18T00:59:21;16.50;;;5.57;;
70385;SDS011;63206;55.650;37.500;2022-12-18T01:01:56;13.32;;;5.00;;
70385;SDS011;63206;55.650;37.500;2022-12-18T01:04:24;14.57;;;5.93;;
70385;SDS011;63206;55.650;37.500;2022-12-18T01:06:53;15.52;;;5.57;;
70385;SDS011;63206;55.650;37.500;2022-12-18T01:09:24;14.07;;;5.45;;
70385;SDS011;63206;55.650;37.500;2022-12-18T01:11:54;15.40;;;5.70;;
70385;SDS011;63206;55.650;37.500;2022-12-18T01:16:51;14.50;;;5.65;;
70385;SDS011;63206;55.650;37.500;2022-12-18T01:19:22;12.85;;;5.10;;
70385;SDS011;63206;55.650;37.500;2022-12-18T01:21:49;16.38;;;5.63;;
70385;SDS011;63206;55.650;37.500;2022-12-18T01:24:21;17.05;;;6.03;;
70385;SDS011;63206;55.650;37.500;2022-12-18T01:26:53;15.25;;;5.80;;
70385;SDS011;63206;55.650;37.500;2022-12-18T01:31:50;13.52;;;5.40;;
70385;SDS011;63206;55.650;37.500;2022-12-18T01:34:23;14.40;;;5.93;;
70385;SDS011;63206;55.650;37.500;2022-12-18T01:36:55;14.25;;;5.32;;
70385;SDS011;63206;55.650;37.500;2022-12-18T01:39:27;14.18;;;5.85;;
70385;SDS011;63206;55.650;37.500;2022-12-18T01:42:00;11.75;;;4.80;;
70385;SDS011;63206;55.650;37.500;2022-12-18T01:47:39;16.83;;;5.65;;
70385;SDS011;63206;55.650;37.500;2022-12-18T01:50:23;16.27;;;5.88;;
70385;SDS011;63206;55.650;37.500;2022-12-18T01:52:56;14.27;;;5.43;;
70385;SDS011;63206;55.650;37.500;2022-12-18T01:55:35;13.88;;;5.88;;
70385;SDS011;63206;55.650;37.500;2022-12-18T01:58:03;16.52;;;5.57;;
70385;SDS011;63206;55.650;37.500;2022-12-18T02:00:37;14.50;;;5.40;;
70385;SDS011;63206;55.650;37.500;2022-12-18T02:03:11;14.50;;;5.57;;
70385;SDS011;63206;55.650;37.500;2022-12-18T02:16:23;17.23;;;5.68;;
70385;SDS011;63206;55.650;37.500;2022-12-18T02:18:56;14.63;;;5.90;;
70385;SDS011;63206;55.650;37.500;2022-12-18T02:24:45;14.95;;;5.80;;
70385;SDS011;63206;55.650;37.500;2022-12-18T02:27:02;16.48;;;5.28;;
70385;SDS011;63206;55.650;37.500;2022-12-18T02:32:00;12.35;;;5.20;;
70385;SDS011;63206;55.650;37.500;2022-12-18T02:34:31;12.63;;;5.35;;
70385;SDS011;63206;55.650;37.500;2022-12-18T02:37:01;13.35;;;5.30;;
70385;SDS011;63206;55.650;37.500;2022-12-18T02:42:05;12.80;;;5.53;;
70385;SDS011;63206;55.650;37.500;2022-12-18T02:44:57;14.05;;;5.10;;
70385;SDS011;63206;55.650;37.500;2022-12-18T02:47:36;14.05;;;5.75;;
70385;SDS011;63206;55.650;37.500;2022-12-18T02:52:42;14.82;;;5.22;;
70385;SDS011;63206;55.650;37.500;2022-12-18T02:57:53;14.18;;;5.28;;
70385;SDS011;63206;55.650;37.500;2022-12-18T03:00:36;13.60;;;5.55;;
70385;SDS011;63206;55.650;37.500;2022-12-18T03:03:09;12.43;;;5.32;;
70385;SDS011;63206;55.650;37.500;2022-12-18T03:05:41;12.52;;;4.75;;
70385;SDS011;63206;55.650;37.500;2022-12-18T03:08:18;14.05;;;5.22;;
70385;SDS011;63206;55.650;37.500;2022-12-18T03:10:55;12.25;;;5.35;;
70385;SDS011;63206;55.650;37.500;2022-12-18T03:13:25;12.15;;;4.90;;
70385;SDS011;63206;55.650;37.500;2022-12-18T03:15:58;13.25;;;5.13;;
70385;SDS011;63206;55.650;37.500;2022-12-18T03:20:58;13.13;;;5.65;;
70385;SDS011;63206;55.650;37.500;2022-12-18T03:23:29;11.52;;;5.00;;
70385;SDS011;63206;55.650;37.500;2022-12-18T03:26:01;13.73;;;5.40;;
70385;SDS011;63206;55.650;37.500;2022-12-18T03:31:02;11.57;;;5.43;;
70385;SDS011;63206;55.650;37.500;2022-12-18T03:33:42;15.32;;;5.20;;
70385;SDS011;63206;55.650;37.500;2022-12-18T03:36:12;14.02;;;5.25;;
70385;SDS011;63206;55.650;37.500;2022-12-18T03:38:38;13.18;;;5.00;;
70385;SDS011;63206;55.650;37.500;2022-12-18T03:41:41;13.75;;;5.22;;
70385;SDS011;63206;55.650;37.500;2022-12-18T03:47:09;13.25;;;5.22;;
70385;SDS011;63206;55.650;37.500;2022-12-18T03:49:50;10.68;;;5.10;;
70385;SDS011;63206;55.650;37.500;2022-12-18T03:52:28;12.77;;;5.40;;
70385;SDS011;63206;55.650;37.500;2022-12-18T03:54:59;13.60;;;4.60;;
70385;SDS011;63206;55.650;37.500;2022-12-18T03:57:31;11.30;;;4.47;;
70385;SDS011;63206;55.650;37.500;2022-12-18T04:00:06;13.48;;;5.20;;
70385;SDS011;63206;55.650;37.500;2022-12-18T04:02:45;12.88;;;4.57;;
70385;SDS011;63206;55.650;37.500;2022-12-18T04:05:19;13.40;;;5.05;;
70385;SDS011;63206;55.650;37.500;2022-12-18T04:07:52;14.18;;;5.15;;
70385;SDS011;63206;55.650;37.500;2022-12-18T04:10:20;13.48;;;5.07;;
70385;SDS011;63206;55.650;37.500;2022-12-18T04:12:49;13.70;;;5.18;;
70385;SDS011;63206;55.650;37.500;2022-12-18T04:15:15;13.57;;;4.97;;
70385;SDS011;63206;55.650;37.500;2022-12-18T04:17:46;12.18;;;4.63;;
70385;SDS011;63206;55.650;37.500;2022-12-18T04:20:12;11.93;;;4.60;;
70385;SDS011;63206;55.650;37.500;2022-12-18T04:23:00;14.27;;;4.50;;
70385;SDS011;63206;55.650;37.500;2022-12-18T04:25:29;11.27;;;4.70;;
70385;SDS011;63206;55.650;37.500;2022-12-18T04:28:05;13.52;;;4.68;;
70385;SDS011;63206;55.650;37.500;2022-12-18T04:30:35;13.45;;;5.55;;
70385;SDS011;63206;55.650;37.500;2022-12-18T04:33:10;12.15;;;4.32;;
70385;SDS011;63206;55.650;37.500;2022-12-18T04:35:38;13.05;;;5.15;;
70385;SDS011;63206;55.650;37.500;2022-12-18T04:38:05;11.75;;;4.85;;
70385;SDS011;63206;55.650;37.500;2022-12-18T04:40:34;12.05;;;4.93;;
70385;SDS011;63206;55.650;37.500;2022-12-18T04:43:04;11.30;;;4.60;;
70385;SDS011;63206;55.650;37.500;2022-12-18T04:45:33;12.07;;;4.57;;
70385;SDS011;63206;55.650;37.500;2022-12-18T04:48:01;13.38;;;4.20;;
70385;SDS011;63206;55.650;37.500;2022-12-18T04:50:33;18.58;;;5.03;;
70385;SDS011;63206;55.650;37.500;2022-12-18T04:53:02;11.60;;;4.53;;
70385;SDS011;63206;55.650;37.500;2022-12-18T04:58:07;11.88;;;4.05;;
70385;SDS011;63206;55.650;37.500;2022-12-18T05:00:35;9.63;;;4.20;;
70385;SDS011;63206;55.650;37.500;2022-12-18T05:03:07;13.90;;;4.50;;
70385;SDS011;63206;55.650;37.500;2022-12-18T05:05:34;10.65;;;4.50;;
70385;SDS011;63206;55.650;37.500;2022-12-18T05:08:05;10.52;;;4.38;;
70385;SDS011;63206;55.650;37.500;2022-12-18T05:10:37;12.10;;;4.65;;
70385;SDS011;63206;55.650;37.500;2022-12-18T05:13:05;11.10;;;4.38;;
70385;SDS011;63206;55.650;37.500;2022-12-18T05:15:34;11.18;;;4.50;;
70385;SDS011;63206;55.650;37.500;2022-12-18T05:18:01;13.85;;;5.03;;
70385;SDS011;63206;55.650;37.500;2022-12-18T05:20:29;12.30;;;4.90;;
70385;SDS011;63206;55.650;37.500;2022-12-18T05:22:58;11.48;;;4.32;;
70385;SDS011;63206;55.650;37.500;2022-12-18T05:25:24;13.00;;;5.00;;
70385;SDS011;63206;55.650;37.500;2022-12-18T05:27:50;11.30;;;4.50;;
70385;SDS011;63206;55.650;37.500;2022-12-18T05:30:19;12.02;;;4.70;;
70385;SDS011;63206;55.650;37.500;2022-12-18T05:32:51;11.93;;;5.00;;
70385;SDS011;63206;55.650;37.500;2022-12-18T05:35:25;12.48;;;4.65;;
70385;SDS011;63206;55.650;37.500;2022-12-18T05:37:51;11.25;;;4.53;;
70385;SDS011;63206;55.650;37.500;2022-12-18T05:40:17;12.27;;;4.53;;
70385;SDS011;63206;55.650;37.500;2022-12-18T05:42:46;10.63;;;4.18;;
70385;SDS011;63206;55.650;37.500;2022-12-18T05:45:14;12.63;;;4.93;;
70385;SDS011;63206;55.650;37.500;2022-12-18T05:47:46;10.60;;;4.25;;
70385;SDS011;63206;55.650;37.500;2022-12-18T05:50:15;10.80;;;4.50;;
70385;SDS011;63206;55.650;37.500;2022-12-18T05:52:41;15.80;;;4.68;;
70385;SDS011;63206;55.650;37.500;2022-12-18T05:55:10;13.80;;;4.50;;
70385;SDS011;63206;55.650;37.500;2022-12-18T05:57:38;12.40;;;4.40;;
70385;SDS011;63206;55.650;37.500;2022-12-18T06:00:07;12.05;;;4.72;;
70385;SDS011;63206;55.650;37.500;2022-12-18T06:02:40;12.32;;;4.60;;
70385;SDS011;63206;55.650;37.500;2022-12-18T06:05:06;16.83;;;6.95;;
70385;SDS011;63206;55.650;37.500;2022-12-18T06:07:38;12.15;;;5.00;;
70385;SDS011;63206;55.650;37.500;2022-12-18T06:10:10;12.43;;;4.43;;
70385;SDS011;63206;55.650;37.500;2022-12-18T06:12:39;15.35;;;5.18;;
70385;SDS011;63206;55.650;37.500;2022-12-18T06:15:05;13.13;;;4.95;;
70385;SDS011;63206;55.650;37.500;2022-12-18T06:17:32;13.63;;;5.25;;
70385;SDS011;63206;55.650;37.500;2022-12-18T06:22:31;11.85;;;3.97;;
70385;SDS011;63206;55.650;37.500;2022-12-18T06:24:57;14.63;;;5.00;;
70385;SDS011;63206;55.650;37.500;2022-12-18T06:27:25;12.77;;;4.10;;
70385;SDS011;63206;55.650;37.500;2022-12-18T06:29:53;10.75;;;4.15;;
70385;SDS011;63206;55.650;37.500;2022-12-18T06:32:22;13.68;;;5.00;;
70385;SDS011;63206;55.650;37.500;2022-12-18T06:34:51;11.90;;;4.45;;
70385;SDS011;63206;55.650;37.500;2022-12-18T06:37:19;11.98;;;4.95;;
70385;SDS011;63206;55.650;37.500;2022-12-18T06:39:45;10.90;;;4.53;;
70385;SDS011;63206;55.650;37.500;2022-12-18T06:42:14;11.88;;;5.10;;
70385;SDS011;63206;55.650;37.500;2022-12-18T06:44:43;12.82;;;5.18;;
70385;SDS011;63206;55.650;37.500;2022-12-18T06:47:12;12.93;;;5.10;;
70385;SDS011;63206;55.650;37.500;2022-12-18T06:49:49;13.07;;;4.72;;
70385;SDS011;63206;55.650;37.500;2022-12-18T06:52:21;13.23;;;4.60;;
70385;SDS011;63206;55.650;37.500;2022-12-18T06:54:49;10.70;;;4.22;;
70385;SDS011;63206;55.650;37.500;2022-12-18T06:57:23;12.73;;;4.47;;
70385;SDS011;63206;55.650;37.500;2022-12-18T06:59:52;11.20;;;5.07;;
70385;SDS011;63206;55.650;37.500;2022-12-18T07:02:23;12.02;;;4.68;;
70385;SDS011;63206;55.650;37.500;2022-12-18T07:04:52;10.93;;;4.15;;
70385;SDS011;63206;55.650;37.500;2022-12-18T07:07:23;11.07;;;4.78;;
70385;SDS011;63206;55.650;37.500;2022-12-18T07:09:52;12.13;;;4.60;;
70385;SDS011;63206;55.650;37.500;2022-12-18T07:12:21;12.35;;;4.68;;
70385;SDS011;63206;55.650;37.500;2022-12-18T07:14:48;12.68;;;4.72;;
70385;SDS011;63206;55.650;37.500;2022-12-18T07:17:16;12.68;;;4.90;;
70385;SDS011;63206;55.650;37.500;2022-12-18T07:19:45;13.85;;;4.68;;
70385;SDS011;63206;55.650;37.500;2022-12-18T07:22:11;12.43;;;4.97;;
70385;SDS011;63206;55.650;37.500;2022-12-18T07:24:37;11.77;;;4.38;;
70385;SDS011;63206;55.650;37.500;2022-12-18T07:27:03;13.13;;;4.88;;
70385;SDS011;63206;55.650;37.500;2022-12-18T07:29:32;13.25;;;4.85;;
70385;SDS011;63206;55.650;37.500;2022-12-18T07:32:06;13.05;;;4.95;;
70385;SDS011;63206;55.650;37.500;2022-12-18T07:34:41;12.35;;;4.90;;
70385;SDS011;63206;55.650;37.500;2022-12-18T07:37:10;12.30;;;4.50;;
70385;SDS011;63206;55.650;37.500;2022-12-18T07:39:36;14.98;;;4.80;;
70385;SDS011;63206;55.650;37.500;2022-12-18T07:42:02;10.77;;;3.90;;
70385;SDS011;63206;55.650;37.500;2022-12-18T07:44:46;10.90;;;4.50;;
70385;SDS011;63206;55.650;37.500;2022-12-18T07:47:17;13.45;;;5.10;;
70385;SDS011;63206;55.650;37.500;2022-12-18T07:49:52;12.82;;;4.18;;
70385;SDS011;63206;55.650;37.500;2022-12-18T07:52:18;10.48;;;4.13;;
70385;SDS011;63206;55.650;37.500;2022-12-18T07:54:46;11.07;;;4.63;;
70385;SDS011;63206;55.650;37.500;2022-12-18T07:57:15;12.18;;;4.15;;
70385;SDS011;63206;55.650;37.500;2022-12-18T07:59:44;12.07;;;4.00;;
70385;SDS011;63206;55.650;37.500;2022-12-18T08:02:13;13.13;;;4.90;;
70385;SDS011;63206;55.650;37.500;2022-12-18T08:04:44;13.15;;;4.68;;
70385;SDS011;63206;55.650;37.500;2022-12-18T08:07:13;13.80;;;5.25;;
70385;SDS011;63206;55.650;37.500;2022-12-18T08:09:51;11.50;;;4.60;;
70385;SDS011;63206;55.650;37.500;2022-12-18T08:12:19;11.40;;;3.92;;
70385;SDS011;63206;55.650;37.500;2022-12-18T08:17:19;12.85;;;4.43;;
70385;SDS011;63206;55.650;37.500;2022-12-18T08:19:45;13.30;;;4.53;;
70385;SDS011;63206;55.650;37.500;2022-12-18T08:22:11;10.48;;;4.60;;
70385;SDS011;63206;55.650;37.500;2022-12-18T08:24:40;10.45;;;4.07;;
70385;SDS011;63206;55.650;37.500;2022-12-18T08:27:06;12.52;;;4.38;;
70385;SDS011;63206;55.650;37.500;2022-12-18T08:29:35;11.32;;;4.93;;
70385;SDS011;63206;55.650;37.500;2022-12-18T08:32:01;13.77;;;4.82;;
70385;SDS011;63206;55.650;37.500;2022-12-18T08:36:58;15.48;;;5.18;;
70385;SDS011;63206;55.650;37.500;2022-12-18T08:39:24;13.65;;;4.88;;
70385;SDS011;63206;55.650;37.500;2022-12-18T08:41:55;14.20;;;4.72;;
70385;SDS011;63206;55.650;37.500;2022-12-18T08:44:43;11.82;;;4.00;;
70385;SDS011;63206;55.650;37.500;2022-12-18T08:47:11;11.05;;;4.13;;
70385;SDS011;63206;55.650;37.500;2022-12-18T08:49:39;12.77;;;4.35;;
70385;SDS011;63206;55.650;37.500;2022-12-18T08:52:10;12.00;;;4.85;;
70385;SDS011;63206;55.650;37.500;2022-12-18T08:54:48;11.63;;;4.28;;
70385;SDS011;63206;55.650;37.500;2022-12-18T08:57:22;13.13;;;4.97;;
70385;SDS011;63206;55.650;37.500;2022-12-18T08:59:56;11.40;;;4.30;;
70385;SDS011;63206;55.650;37.500;2022-12-18T09:02:30;11.25;;;4.40;;
70385;SDS011;63206;55.650;37.500;2022-12-18T09:04:56;9.15;;;3.70;;
70385;SDS011;63206;55.650;37.500;2022-12-18T09:07:25;12.48;;;3.88;;
70385;SDS011;63206;55.650;37.500;2022-12-18T09:09:53;11.52;;;4.30;;
70385;SDS011;63206;55.650;37.500;2022-12-18T09:12:26;8.82;;;3.85;;
70385;SDS011;63206;55.650;37.500;2022-12-18T09:14:54;11.13;;;4.15;;
70385;SDS011;63206;55.650;37.500;2022-12-18T09:17:24;11.50;;;4.50;;
70385;SDS011;63206;55.650;37.500;2022-12-18T09:19:50;12.63;;;4.53;;
70385;SDS011;63206;55.650;37.500;2022-12-18T09:22:16;12.85;;;4.30;;
70385;SDS011;63206;55.650;37.500;2022-12-18T09:24:45;12.02;;;4.85;;
70385;SDS011;63206;55.650;37.500;2022-12-18T09:27:16;11.70;;;4.40;;
70385;SDS011;63206;55.650;37.500;2022-12-18T09:29:45;11.25;;;4.15;;
70385;SDS011;63206;55.650;37.500;2022-12-18T09:32:21;11.40;;;4.05;;
70385;SDS011;63206;55.650;37.500;2022-12-18T09:34:55;10.98;;;4.32;;
70385;SDS011;63206;55.650;37.500;2022-12-18T09:37:26;12.73;;;4.30;;
70385;SDS011;63206;55.650;37.500;2022-12-18T09:39:57;11.93;;;4.75;;
70385;SDS011;63206;55.650;37.500;2022-12-18T09:42:23;12.25;;;4.45;;
70385;SDS011;63206;55.650;37.500;2022-12-18T09:44:53;11.93;;;4.35;;
70385;SDS011;63206;55.650;37.500;2022-12-18T09:47:28;10.63;;;3.92;;
70385;SDS011;63206;55.650;37.500;2022-12-18T09:50:03;10.00;;;4.03;;
70385;SDS011;63206;55.650;37.500;2022-12-18T09:52:41;12.88;;;4.53;;
70385;SDS011;63206;55.650;37.500;2022-12-18T09:55:22;10.02;;;4.32;;
70385;SDS011;63206;55.650;37.500;2022-12-18T09:57:50;12.45;;;4.55;;
70385;SDS011;63206;55.650;37.500;2022-12-18T10:00:22;8.82;;;3.70;;
70385;SDS011;63206;55.650;37.500;2022-12-18T10:02:51;12.15;;;4.05;;
70385;SDS011;63206;55.650;37.500;2022-12-18T10:05:31;10.07;;;3.67;;
70385;SDS011;63206;55.650;37.500;2022-12-18T10:08:05;9.10;;;3.67;;
70385;SDS011;63206;55.650;37.500;2022-12-18T10:10:38;10.25;;;3.65;;
70385;SDS011;63206;55.650;37.500;2022-12-18T10:13:19;12.30;;;4.30;;
70385;SDS011;63206;55.650;37.500;2022-12-18T10:21:21;9.90;;;3.67;;
70385;SDS011;63206;55.650;37.500;2022-12-18T10:26:15;9.75;;;3.80;;
70385;SDS011;63206;55.650;37.500;2022-12-18T10:28:41;10.25;;;4.30;;
70385;SDS011;63206;55.650;37.500;2022-12-18T10:33:44;9.07;;;3.45;;
70385;SDS011;63206;55.650;37.500;2022-12-18T10:36:10;8.93;;;3.08;;
70385;SDS011;63206;55.650;37.500;2022-12-18T10:38:39;16.88;;;5.88;;
70385;SDS011;63206;55.650;37.500;2022-12-18T10:43:46;11.32;;;4.20;;
70385;SDS011;63206;55.650;37.500;2022-12-18T10:46:16;11.02;;;3.67;;
70385;SDS011;63206;55.650;37.500;2022-12-18T10:48:55;11.63;;;4.15;;
70385;SDS011;63206;55.650;37.500;2022-12-18T10:51:31;9.57;;;3.65;;
70385;SDS011;63206;55.650;37.500;2022-12-18T10:54:12;9.60;;;3.28;;
70385;SDS011;63206;55.650;37.500;2022-12-18T10:56:45;12.13;;;3.65;;
70385;SDS011;63206;55.650;37.500;2022-12-18T10:59:15;10.93;;;3.70;;
70385;SDS011;63206;55.650;37.500;2022-12-18T11:01:53;9.02;;;3.15;;
70385;SDS011;63206;55.650;37.500;2022-12-18T11:04:24;9.95;;;3.55;;
70385;SDS011;63206;55.650;37.500;2022-12-18T11:09:23;10.35;;;3.70;;
70385;SDS011;63206;55.650;37.500;2022-12-18T11:11:53;11.25;;;3.50;;
70385;SDS011;63206;55.650;37.500;2022-12-18T11:16:52;11.52;;;4.00;;
70385;SDS011;63206;55.650;37.500;2022-12-18T11:21:58;9.90;;;3.60;;
70385;SDS011;63206;55.650;37.500;2022-12-18T11:24:31;9.35;;;3.50;;
70385;SDS011;63206;55.650;37.500;2022-12-18T11:27:04;9.52;;;3.70;;
70385;SDS011;63206;55.650;37.500;2022-12-18T11:32:13;9.25;;;3.38;;
70385;SDS011;63206;55.650;37.500;2022-12-18T11:34:46;10.63;;;3.50;;
70385;SDS011;63206;55.650;37.500;2022-12-18T11:37:16;10.00;;;3.78;;
70385;SDS011;63206;55.650;37.500;2022-12-18T11:39:46;9.93;;;3.67;;
70385;SDS011;63206;55.650;37.500;2022-12-18T11:50:13;9.75;;;3.25;;
70385;SDS011;63206;55.650;37.500;2022-12-18T11:52:40;8.20;;;3.00;;
70385;SDS011;63206;55.650;37.500;2022-12-18T11:55:25;9.63;;;3.22;;
70385;SDS011;63206;55.650;37.500;2022-12-18T12:00:40;11.23;;;3.72;;
70385;SDS011;63206;55.650;37.500;2022-12-18T12:03:29;9.80;;;4.00;;
70385;SDS011;63206;55.650;37.500;2022-12-18T12:13:38;9.43;;;3.30;;
70385;SDS011;63206;55.650;37.500;2022-12-18T12:16:09;8.98;;;3.40;;
70385;SDS011;63206;55.650;37.500;2022-12-18T12:29:14;9.48;;;3.22;;
70385;SDS011;63206;55.650;37.500;2022-12-18T12:34:29;8.35;;;2.90;;
70385;SDS011;63206;55.650;37.500;2022-12-18T12:39:36;9.20;;;3.28;;
70385;SDS011;63206;55.650;37.500;2022-12-18T12:42:06;9.25;;;3.45;;
70385;SDS011;63206;55.650;37.500;2022-12-18T12:44:55;7.95;;;2.55;;
70385;SDS011;63206;55.650;37.500;2022-12-18T12:47:36;7.45;;;2.70;;
70385;SDS011;63206;55.650;37.500;2022-12-18T12:50:11;9.88;;;2.80;;
70385;SDS011;63206;55.650;37.500;2022-12-18T12:52:43;6.88;;;2.90;;
70385;SDS011;63206;55.650;37.500;2022-12-18T12:55:28;7.75;;;3.05;;
70385;SDS011;63206;55.650;37.500;2022-12-18T13:00:20;9.15;;;2.88;;
70385;SDS011;63206;55.650;37.500;2022-12-18T13:02:59;12.70;;;3.50;;
70385;SDS011;63206;55.650;37.500;2022-12-18T13:13:07;8.48;;;3.05;;
70385;SDS011;63206;55.650;37.500;2022-12-18T13:15:47;10.43;;;3.22;;
70385;SDS011;63206;55.650;37.500;2022-12-18T13:20:44;9.50;;;3.58;;
70385;SDS011;63206;55.650;37.500;2022-12-18T13:25:48;11.55;;;3.45;;
70385;SDS011;63206;55.650;37.500;2022-12-18T13:31:02;13.05;;;4.32;;
70385;SDS011;63206;55.650;37.500;2022-12-18T13:41:34;14.50;;;4.38;;
70385;SDS011;63206;55.650;37.500;2022-12-18T13:46:45;12.93;;;4.35;;
70385;SDS011;63206;55.650;37.500;2022-12-18T13:51:41;15.45;;;4.72;;
70385;SDS011;63206;55.650;37.500;2022-12-18T13:56:46;15.30;;;5.15;;
70385;SDS011;63206;55.650;37.500;2022-12-18T13:59:15;16.30;;;5.03;;
70385;SDS011;63206;55.650;37.500;2022-12-18T14:01:45;14.82;;;5.40;;
70385;SDS011;63206;55.650;37.500;2022-12-18T14:04:19;15.93;;;5.45;;
70385;SDS011;63206;55.650;37.500;2022-12-18T14:06:46;19.55;;;4.90;;
70385;SDS011;63206;55.650;37.500;2022-12-18T14:09:20;16.27;;;5.72;;
70385;SDS011;63206;55.650;37.500;2022-12-18T14:11:49;11.82;;;4.50;;
70385;SDS011;63206;55.650;37.500;2022-12-18T14:14:16;16.50;;;5.43;;
70385;SDS011;63206;55.650;37.500;2022-12-18T14:16:43;15.73;;;5.70;;
70385;SDS011;63206;55.650;37.500;2022-12-18T14:19:15;18.45;;;6.30;;
70385;SDS011;63206;55.650;37.500;2022-12-18T14:21:47;14.80;;;4.65;;
70385;SDS011;63206;55.650;37.500;2022-12-18T14:24:17;15.80;;;5.35;;
70385;SDS011;63206;55.650;37.500;2022-12-18T14:26:47;13.55;;;4.72;;
70385;SDS011;63206;55.650;37.500;2022-12-18T14:29:34;17.50;;;5.55;;
70385;SDS011;63206;55.650;37.500;2022-12-18T14:32:15;13.90;;;5.10;;
70385;SDS011;63206;55.650;37.500;2022-12-18T14:34:51;14.30;;;5.38;;
70385;SDS011;63206;55.650;37.500;2022-12-18T14:37:25;14.70;;;4.57;;
70385;SDS011;63206;55.650;37.500;2022-12-18T14:39:58;11.80;;;4.10;;
70385;SDS011;63206;55.650;37.500;2022-12-18T14:42:33;13.35;;;4.05;;
70385;SDS011;63206;55.650;37.500;2022-12-18T14:47:49;14.07;;;4.78;;
70385;SDS011;63206;55.650;37.500;2022-12-18T14:50:18;14.35;;;4.70;;
70385;SDS011;63206;55.650;37.500;2022-12-18T14:52:46;15.77;;;4.55;;
70385;SDS011;63206;55.650;37.500;2022-12-18T14:55:18;11.93;;;4.10;;
70385;SDS011;63206;55.650;37.500;2022-12-18T14:57:51;11.25;;;4.00;;
70385;SDS011;63206;55.650;37.500;2022-12-18T15:00:22;12.88;;;4.55;;
70385;SDS011;63206;55.650;37.500;2022-12-18T15:02:54;10.93;;;4.18;;
70385;SDS011;63206;55.650;37.500;2022-12-18T15:05:30;9.57;;;3.15;;
70385;SDS011;63206;55.650;37.500;2022-12-18T15:08:00;10.10;;;3.38;;
70385;SDS011;63206;55.650;37.500;2022-12-18T15:10:32;11.20;;;3.63;;
70385;SDS011;63206;55.650;37.500;2022-12-18T15:23:51;13.85;;;5.18;;
70385;SDS011;63206;55.650;37.500;2022-12-18T15:26:02;10.35;;;3.90;;
70385;SDS011;63206;55.650;37.500;2022-12-18T15:31:02;11.05;;;3.55;;
70385;SDS011;63206;55.650;37.500;2022-12-18T15:33:32;11.52;;;3.72;;
70385;SDS011;63206;55.650;37.500;2022-12-18T15:35:59;10.73;;;3.80;;
70385;SDS011;63206;55.650;37.500;2022-12-18T15:38:25;10.27;;;3.80;;
70385;SDS011;63206;55.650;37.500;2022-12-18T15:40:52;9.55;;;3.53;;
70385;SDS011;63206;55.650;37.500;2022-12-18T15:43:19;10.00;;;3.40;;
70385;SDS011;63206;55.650;37.500;2022-12-18T15:46:05;11.30;;;3.70;;
70385;SDS011;63206;55.650;37.500;2022-12-18T15:48:34;9.55;;;3.33;;
70385;SDS011;63206;55.650;37.500;2022-12-18T15:51:01;11.38;;;3.97;;
70385;SDS011;63206;55.650;37.500;2022-12-18T15:53:30;10.45;;;4.10;;
70385;SDS011;63206;55.650;37.500;2022-12-18T15:56:00;9.68;;;3.88;;
70385;SDS011;63206;55.650;37.500;2022-12-18T15:58:47;9.82;;;3.70;;
70385;SDS011;63206;55.650;37.500;2022-12-18T16:01:13;9.77;;;3.60;;
70385;SDS011;63206;55.650;37.500;2022-12-18T16:03:39;8.82;;;3.22;;
70385;SDS011;63206;55.650;37.500;2022-12-18T16:06:05;8.98;;;4.10;;
70385;SDS011;63206;55.650;37.500;2022-12-18T16:08:31;12.43;;;4.40;;
70385;SDS011;63206;55.650;37.500;2022-12-18T16:11:00;10.77;;;4.05;;
70385;SDS011;63206;55.650;37.500;2022-12-18T16:13:26;12.07;;;4.10;;
70385;SDS011;63206;55.650;37.500;2022-12-18T16:15:58;11.32;;;4.22;;
70385;SDS011;63206;55.650;37.500;2022-12-18T16:18:26;9.45;;;3.92;;
70385;SDS011;63206;55.650;37.500;2022-12-18T16:20:52;9.70;;;3.88;;
70385;SDS011;63206;55.650;37.500;2022-12-18T16:23:21;11.02;;;4.00;;
70385;SDS011;63206;55.650;37.500;2022-12-18T16:25:50;11.02;;;3.78;;
70385;SDS011;63206;55.650;37.500;2022-12-18T16:28:21;12.43;;;4.53;;
70385;SDS011;63206;55.650;37.500;2022-12-18T16:30:47;15.20;;;4.93;;
70385;SDS011;63206;55.650;37.500;2022-12-18T16:33:13;11.10;;;4.93;;
70385;SDS011;63206;55.650;37.500;2022-12-18T16:35:51;11.70;;;4.18;;
70385;SDS011;63206;55.650;37.500;2022-12-18T16:38:20;10.90;;;4.03;;
70385;SDS011;63206;55.650;37.500;2022-12-18T16:40:49;12.80;;;4.30;;
70385;SDS011;63206;55.650;37.500;2022-12-18T16:43:36;12.40;;;4.15;;
70385;SDS011;63206;55.650;37.500;2022-12-18T16:46:02;10.77;;;4.00;;
70385;SDS011;63206;55.650;37.500;2022-12-18T16:48:37;11.60;;;4.30;;
70385;SDS011;63206;55.650;37.500;2022-12-18T16:56:00;9.48;;;3.47;;
70385;SDS011;63206;55.650;37.500;2022-12-18T16:58:32;11.32;;;3.53;;
70385;SDS011;63206;55.650;37.500;2022-12-18T17:01:10;10.82;;;3.95;;
70385;SDS011;63206;55.650;37.500;2022-12-18T17:03:39;13.10;;;3.95;;
70385;SDS011;63206;55.650;37.500;2022-12-18T17:06:08;12.95;;;3.90;;
70385;SDS011;63206;55.650;37.500;2022-12-18T17:08:34;10.13;;;3.83;;
70385;SDS011;63206;55.650;37.500;2022-12-18T17:11:06;10.45;;;3.47;;
70385;SDS011;63206;55.650;37.500;2022-12-18T17:13:37;10.80;;;3.92;;
70385;SDS011;63206;55.650;37.500;2022-12-18T17:16:06;11.00;;;3.53;;
70385;SDS011;63206;55.650;37.500;2022-12-18T17:18:40;10.77;;;4.40;;
70385;SDS011;63206;55.650;37.500;2022-12-18T17:21:08;14.75;;;4.50;;
70385;SDS011;63206;55.650;37.500;2022-12-18T17:23:36;12.50;;;4.30;;
70385;SDS011;63206;55.650;37.500;2022-12-18T17:26:06;11.20;;;4.20;;
70385;SDS011;63206;55.650;37.500;2022-12-18T17:28:33;12.13;;;4.63;;
70385;SDS011;63206;55.650;37.500;2022-12-18T17:30:59;12.68;;;4.32;;